createdAt,value
2023-04-26T07:31:08.548Z,25.8
2023-04-26T07:37:01.197Z,25.6
2023-04-26T07:42:52.076Z,25.3
2023-04-26T07:48:46.691Z,25.1
2023-04-26T07:54:37.100Z,24.8
2023-04-26T08:00:31.146Z,24.6
2023-04-26T08:06:40.003Z,24.4
2023-04-26T08:12:31.726Z,24.2
2023-04-26T08:18:25.743Z,23.9
2023-04-26T08:24:19.165Z,23.8
2023-04-26T08:30:11.037Z,23.6
2023-04-26T08:36:03.457Z,23.5
2023-04-26T08:41:57.078Z,23.4
2023-04-26T08:47:35.731Z,23.3
2023-04-26T08:53:26.892Z,23.1
2023-04-26T08:59:20.432Z,23
2023-04-26T09:05:13.803Z,22.9
2023-04-26T09:11:08.037Z,22.8
2023-04-26T09:16:46.352Z,22.8
2023-04-26T09:22:38.227Z,22.7
2023-04-26T09:28:29.630Z,22.6
2023-04-26T09:34:23.991Z,22.5
2023-04-26T09:40:11.987Z,22.4
2023-04-26T09:46:04.804Z,22.4
2023-04-26T09:51:58.994Z,22.3
2023-04-26T09:58:03.808Z,22.3
2023-04-26T10:03:56.707Z,22.2
2023-04-26T10:09:50.265Z,22.1
2023-04-26T10:15:25.654Z,22.1
2023-04-26T10:21:01.225Z,22.1
2023-04-26T10:26:54.556Z,22.1
2023-04-26T10:32:53.276Z,22
2023-04-26T10:38:44.478Z,21.9
2023-04-26T10:44:38.636Z,21.9
2023-04-26T10:50:15.901Z,21.9
2023-04-26T10:56:06.174Z,21.9
2023-04-26T11:02:27.662Z,21.9
2023-04-26T11:08:11.159Z,21.8
2023-04-26T11:13:30.675Z,21.8
2023-04-26T11:18:56.058Z,21.8
2023-04-26T11:24:31.286Z,21.8
2023-04-26T11:30:21.959Z,21.8
2023-04-26T11:36:16.704Z,21.7
2023-04-26T11:42:06.738Z,21.7
2023-04-26T11:47:57.692Z,21.6
2023-04-26T11:53:50.665Z,21.6
2023-04-26T11:59:42.235Z,21.6
2023-04-26T12:05:36.675Z,21.6
2023-04-26T12:11:29.937Z,21.6
2023-04-26T12:17:31.702Z,21.6
2023-04-26T12:23:26.766Z,21.6
2023-04-26T12:29:04.498Z,21.6
2023-04-26T12:35:11.823Z,21.5
2023-04-26T12:41:03.260Z,21.5
2023-04-26T12:46:56.066Z,21.5
2023-04-26T12:52:48.550Z,21.5
2023-04-26T12:58:09.838Z,21.4
2023-04-26T13:03:49.484Z,21.5
2023-04-26T13:09:27.068Z,21.4
2023-04-26T13:14:55.349Z,21.4
2023-04-26T13:20:34.029Z,21.4
2023-04-26T13:26:27.077Z,21.4
2023-04-26T13:32:19.345Z,21.4
2023-04-26T13:38:16.823Z,21.4
2023-04-26T13:44:08.935Z,21.4
2023-04-26T13:50:00.585Z,21.4
2023-04-26T13:55:53.052Z,21.4
2023-04-26T14:01:44.733Z,21.4
2023-04-26T14:07:37.911Z,21.4
2023-04-26T14:13:46.149Z,21.3
2023-04-26T14:19:38.469Z,21.3
2023-04-26T14:25:30.306Z,21.3
2023-04-26T14:31:22.700Z,21.3
2023-04-26T14:37:15.665Z,21.3
2023-04-26T14:43:06.511Z,21.3
2023-04-26T14:49:18.018Z,21.3
2023-04-26T14:55:11.567Z,21.3
2023-04-26T15:01:06.503Z,23.2
2023-04-26T15:06:47.742Z,25.8
2023-04-26T15:12:51.188Z,27.3
2023-04-26T15:18:27.747Z,28.1
2023-04-26T15:24:20.325Z,28.3
2023-04-26T15:29:41.252Z,28.8
2023-04-26T15:35:33.349Z,28.7
2023-04-26T15:41:27.649Z,28.9
2023-04-26T15:47:18.843Z,28.7
2023-04-26T15:52:56.082Z,29.8
2023-04-26T15:58:49.237Z,30.4
2023-04-26T16:04:44.484Z,30.8
2023-04-26T16:11:04.406Z,31.1
2023-04-26T16:16:57.873Z,31
2023-04-26T16:22:49.585Z,30.9
2023-04-26T16:28:42.913Z,31
2023-04-26T16:34:36.567Z,30.9
2023-04-26T16:40:27.728Z,30.9
2023-04-26T16:46:21.957Z,30.8
2023-04-26T16:52:15.138Z,31.1
2023-04-26T16:57:51.385Z,31.1
2023-04-26T17:03:12.865Z,31
2023-04-26T17:08:54.321Z,30.9
2023-04-26T17:14:46.327Z,30.6
2023-04-26T17:20:37.717Z,30.8
2023-04-26T17:26:30.047Z,30.3
2023-04-26T17:32:21.911Z,30.8
2023-04-26T17:38:13.053Z,31.6
2023-04-26T17:44:05.597Z,32.1
2023-04-26T17:49:56.411Z,32.4
2023-04-26T17:55:51.006Z,32.5
2023-04-26T18:01:29.008Z,32.6
2023-04-26T18:07:23.926Z,32.6
2023-04-26T18:13:17.042Z,32.8
2023-04-26T18:19:10.377Z,32.7
2023-04-26T18:25:02.118Z,32.5
2023-04-26T18:30:53.694Z,32.6
2023-04-26T18:36:47.973Z,32.3
2023-04-26T18:42:39.657Z,31.9
2023-04-26T18:48:31.622Z,31.4
2023-04-26T18:54:25.212Z,31.1
2023-04-26T19:00:20.555Z,31
2023-04-26T19:06:00.148Z,30.4
2023-04-26T19:12:07.010Z,29.9
2023-04-26T19:18:01.446Z,29.5
2023-04-26T19:23:54.144Z,29.1
2023-04-26T19:29:48.309Z,28.9
2023-04-26T19:35:40.616Z,28.6
2023-04-26T19:41:20.654Z,28.3
2023-04-26T19:47:15.206Z,28.1
2023-04-26T19:52:53.300Z,27.9
2023-04-26T19:58:31.647Z,27.7
2023-04-26T20:04:27.453Z,27.2
2023-04-26T20:10:20.444Z,26.8
2023-04-26T20:16:13.133Z,26.4
2023-04-26T20:22:07.988Z,26.1
2023-04-26T20:27:45.442Z,25.7
2023-04-26T20:33:38.749Z,25.4
2023-04-26T20:39:33.174Z,25.1
2023-04-26T20:45:25.252Z,24.9
2023-04-26T20:51:17.610Z,24.7
2023-04-26T20:57:10.156Z,24.5
2023-04-26T21:03:03.703Z,24.3
2023-04-26T21:08:56.324Z,24.2
2023-04-26T21:14:48.427Z,24.1
2023-04-26T21:20:39.863Z,23.9
2023-04-26T21:26:30.575Z,23.8
2023-04-26T21:32:22.922Z,23.7
2023-04-26T21:37:59.154Z,23.6
2023-04-26T21:43:55.025Z,23.5
2023-04-26T21:49:47.776Z,23.4
2023-04-26T21:55:39.709Z,23.4
2023-04-26T22:01:30.610Z,23.3
2023-04-26T22:07:24.181Z,23.3
2023-04-26T22:13:15.445Z,23.1
2023-04-26T22:19:06.201Z,23.1
2023-04-26T22:24:58.756Z,23
2023-04-26T22:31:01.965Z,22.9
2023-04-26T22:36:57.537Z,22.9
2023-04-26T22:42:53.060Z,22.8
2023-04-26T22:48:44.473Z,22.8
2023-04-26T22:54:43.853Z,22.8
2023-04-26T23:00:20.758Z,22.7
2023-04-26T23:06:12.894Z,22.7
2023-04-26T23:12:03.371Z,22.6
2023-04-26T23:17:42.627Z,22.6
2023-04-26T23:23:33.415Z,22.5
2023-04-26T23:29:25.733Z,22.5
2023-04-26T23:35:18.050Z,22.4
2023-04-26T23:41:14.685Z,22.4
2023-04-26T23:46:49.688Z,22.4
2023-04-26T23:52:42.073Z,22.3
2023-04-26T23:58:32.631Z,22.3
